Baton Rouge, LA

8:29 AM CDT en Septiembre 30, 2016 (GMT -0500)
Beauregard Town | | Change Station

Alt 95 ft 30.44 °N, 91.18 °W | Updated 5 seconds ago

Clear
Despejado
63.7 ° F
Sensación térmica 63.7 ° F
N
0.0
Viento Variable Viento desde Norte
Gusts 0.0 mph

Hoy
Alta -- | Baja -- ° F
--% Posibilidad de precipitaciones
Ayer
Alta -- | Baja -- ° F
Precip. -- pul
Presión 30.13 pul
Visibilidad 10.0 Millas
Nubes Despejado
Punto de rocío 53 ° F
Humedad 68%
Precipitaciones 0.00 pul
Espesor de la nieve No disponible.
6:57 AM 6:50 PM
Creciente menguante, 0% visible
METAR KBTR 301253Z 03004KT 10SM CLR 16/13 A3013 RMK AO2 SLP202 T01560128
Presión 30.13 pul
Visibilidad 10.0 Millas
Nubes Despejado
Punto de rocío 53 ° F
Humedad 68%
Precipitaciones 0.00 pul
Espesor de la nieve No disponible.
6:57 AM 6:50 PM
Creciente menguante, 0% visible
METAR KBTR 301253Z 03004KT 10SM CLR 16/13 A3013 RMK AO2 SLP202 T01560128

10-Day Weather Forecast

Almanac

Astronomía

Sep. 30, 2016 Salida Puesta
Hora real
Crepúsculo civil
Crepúsculo náutico
Crepúsculo astronómico
Luna
Horas de luz
Horas de luz
Tomorrow will be .
, % of the Moon is Illuminated

Extremos de hoy

Máximos del estado Bajos del estado

Community

WunderPhotos

Upload Photos

1,942,708 ¡fotos cargadas!

WunderBlog® & News

Nearby

Calidad del aire

  Calidad del aire Índice AQ Contaminante
Not available.

Grosos de nieve

Estación Profundido Altura

Actividad de terremotos

Ciudad Distance Mag. Tiempo y dato
Magnitud mínima muestra es 2,5.

Temperaturas de aguas costeras

Lugar Temperatura

Stations

Estaciones meteorológicas cercanas

Ubicación de la estación Temp. Vientos helados Punto de rocío Humedad Viento Precip. Alt Actualizado Tipo
                   

Watches & Warnings

There are currently no watches in effect.